sensor_id;sensor_type;location;lat;lon;timestamp;temperature;humidity
12588;DHT22;6359;51.450;7.346;2022-08-14T00:01:05;18.00;99.90
12588;DHT22;6359;51.450;7.346;2022-08-14T00:03:32;18.00;99.90
12588;DHT22;6359;51.450;7.346;2022-08-14T00:06:02;18.00;99.90
12588;DHT22;6359;51.450;7.346;2022-08-14T00:08:29;18.00;99.90
12588;DHT22;6359;51.450;7.346;2022-08-14T00:10:57;17.90;99.90
12588;DHT22;6359;51.450;7.346;2022-08-14T00:13:26;17.90;99.90
12588;DHT22;6359;51.450;7.346;2022-08-14T00:15:57;17.90;99.90
12588;DHT22;6359;51.450;7.346;2022-08-14T00:18:26;17.90;99.90
12588;DHT22;6359;51.450;7.346;2022-08-14T00:20:55;17.90;99.90
12588;DHT22;6359;51.450;7.346;2022-08-14T00:23:22;17.80;99.90
12588;DHT22;6359;51.450;7.346;2022-08-14T00:25:51;17.80;99.90
12588;DHT22;6359;51.450;7.346;2022-08-14T00:28:19;17.80;99.90
12588;DHT22;6359;51.450;7.346;2022-08-14T00:30:51;17.80;99.90
12588;DHT22;6359;51.450;7.346;2022-08-14T00:33:20;17.70;99.90
12588;DHT22;6359;51.450;7.346;2022-08-14T00:35:47;17.70;99.90
12588;DHT22;6359;51.450;7.346;2022-08-14T00:38:14;17.70;99.90
12588;DHT22;6359;51.450;7.346;2022-08-14T00:40:42;17.60;99.90
12588;DHT22;6359;51.450;7.346;2022-08-14T00:43:09;17.70;99.90
12588;DHT22;6359;51.450;7.346;2022-08-14T00:45:37;17.70;99.90
12588;DHT22;6359;51.450;7.346;2022-08-14T00:48:04;17.70;99.90
12588;DHT22;6359;51.450;7.346;2022-08-14T00:50:33;17.70;99.90
12588;DHT22;6359;51.450;7.346;2022-08-14T00:53:00;17.70;99.90
12588;DHT22;6359;51.450;7.346;2022-08-14T00:55:28;17.80;99.90
12588;DHT22;6359;51.450;7.346;2022-08-14T00:57:58;17.80;99.90
12588;DHT22;6359;51.450;7.346;2022-08-14T01:00:47;17.70;99.90
12588;DHT22;6359;51.450;7.346;2022-08-14T01:03:16;17.70;99.90
12588;DHT22;6359;51.450;7.346;2022-08-14T01:05:45;17.60;99.90
12588;DHT22;6359;51.450;7.346;2022-08-14T01:08:17;17.50;99.90
12588;DHT22;6359;51.450;7.346;2022-08-14T01:10:44;17.40;99.90
12588;DHT22;6359;51.450;7.346;2022-08-14T01:13:21;17.70;99.90
12588;DHT22;6359;51.450;7.346;2022-08-14T01:15:50;17.60;99.90
12588;DHT22;6359;51.450;7.346;2022-08-14T01:18:19;17.60;99.90
12588;DHT22;6359;51.450;7.346;2022-08-14T01:21:06;17.70;99.90
12588;DHT22;6359;51.450;7.346;2022-08-14T01:23:40;17.70;99.90
12588;DHT22;6359;51.450;7.346;2022-08-14T01:26:07;17.70;99.90
12588;DHT22;6359;51.450;7.346;2022-08-14T01:28:35;17.70;99.90
12588;DHT22;6359;51.450;7.346;2022-08-14T01:31:05;17.70;99.90
12588;DHT22;6359;51.450;7.346;2022-08-14T01:33:35;17.60;99.90
12588;DHT22;6359;51.450;7.346;2022-08-14T01:36:06;17.60;99.90
12588;DHT22;6359;51.450;7.346;2022-08-14T01:38:34;17.70;99.90
12588;DHT22;6359;51.450;7.346;2022-08-14T01:41:06;17.60;99.90
12588;DHT22;6359;51.450;7.346;2022-08-14T01:43:42;17.60;99.90
12588;DHT22;6359;51.450;7.346;2022-08-14T01:46:09;17.50;99.90
12588;DHT22;6359;51.450;7.346;2022-08-14T01:48:38;17.50;99.90
12588;DHT22;6359;51.450;7.346;2022-08-14T01:51:09;17.50;99.90
12588;DHT22;6359;51.450;7.346;2022-08-14T01:53:37;17.40;99.90
12588;DHT22;6359;51.450;7.346;2022-08-14T01:56:06;17.40;99.90
12588;DHT22;6359;51.450;7.346;2022-08-14T01:58:34;17.30;99.90
12588;DHT22;6359;51.450;7.346;2022-08-14T02:01:01;17.30;99.90
12588;DHT22;6359;51.450;7.346;2022-08-14T02:03:30;17.20;99.90
12588;DHT22;6359;51.450;7.346;2022-08-14T02:06:01;17.20;99.90
12588;DHT22;6359;51.450;7.346;2022-08-14T02:08:28;17.30;99.90
12588;DHT22;6359;51.450;7.346;2022-08-14T02:10:56;17.30;99.90
12588;DHT22;6359;51.450;7.346;2022-08-14T02:13:40;17.30;99.90
12588;DHT22;6359;51.450;7.346;2022-08-14T02:16:09;17.30;99.90
12588;DHT22;6359;51.450;7.346;2022-08-14T02:18:36;17.20;99.90
12588;DHT22;6359;51.450;7.346;2022-08-14T02:21:04;17.20;99.90
12588;DHT22;6359;51.450;7.346;2022-08-14T02:23:32;17.20;99.90
12588;DHT22;6359;51.450;7.346;2022-08-14T02:26:01;17.20;99.90
12588;DHT22;6359;51.450;7.346;2022-08-14T02:28:31;17.10;99.90
12588;DHT22;6359;51.450;7.346;2022-08-14T02:31:00;17.00;99.90
12588;DHT22;6359;51.450;7.346;2022-08-14T02:33:27;17.00;99.90
12588;DHT22;6359;51.450;7.346;2022-08-14T02:35:54;17.00;99.90
12588;DHT22;6359;51.450;7.346;2022-08-14T02:38:21;17.00;99.90
12588;DHT22;6359;51.450;7.346;2022-08-14T02:40:48;17.10;99.90
12588;DHT22;6359;51.450;7.346;2022-08-14T02:43:15;17.00;99.90
12588;DHT22;6359;51.450;7.346;2022-08-14T02:45:42;17.10;99.90
12588;DHT22;6359;51.450;7.346;2022-08-14T02:48:12;17.10;99.90
12588;DHT22;6359;51.450;7.346;2022-08-14T02:50:39;17.20;99.90
12588;DHT22;6359;51.450;7.346;2022-08-14T02:53:08;17.20;99.90
12588;DHT22;6359;51.450;7.346;2022-08-14T02:55:36;17.10;99.90
12588;DHT22;6359;51.450;7.346;2022-08-14T02:58:05;17.00;99.90
12588;DHT22;6359;51.450;7.346;2022-08-14T03:00:33;16.90;99.90
12588;DHT22;6359;51.450;7.346;2022-08-14T03:03:01;16.90;99.90
12588;DHT22;6359;51.450;7.346;2022-08-14T03:05:30;17.00;99.90
12588;DHT22;6359;51.450;7.346;2022-08-14T03:08:04;17.00;99.90
12588;DHT22;6359;51.450;7.346;2022-08-14T03:10:31;17.00;99.90
12588;DHT22;6359;51.450;7.346;2022-08-14T03:12:59;17.00;99.90
12588;DHT22;6359;51.450;7.346;2022-08-14T03:15:29;17.00;99.90
12588;DHT22;6359;51.450;7.346;2022-08-14T03:17:57;17.00;99.90
12588;DHT22;6359;51.450;7.346;2022-08-14T03:20:25;17.20;99.90
12588;DHT22;6359;51.450;7.346;2022-08-14T03:22:54;17.30;99.90
12588;DHT22;6359;51.450;7.346;2022-08-14T03:25:27;17.10;99.90
12588;DHT22;6359;51.450;7.346;2022-08-14T03:27:55;17.00;99.90
12588;DHT22;6359;51.450;7.346;2022-08-14T03:30:22;16.80;99.90
12588;DHT22;6359;51.450;7.346;2022-08-14T03:32:49;16.80;99.90
12588;DHT22;6359;51.450;7.346;2022-08-14T03:35:17;16.70;99.90
12588;DHT22;6359;51.450;7.346;2022-08-14T03:37:44;16.70;99.90
12588;DHT22;6359;51.450;7.346;2022-08-14T03:40:13;16.80;99.90
12588;DHT22;6359;51.450;7.346;2022-08-14T03:42:40;16.70;99.90
12588;DHT22;6359;51.450;7.346;2022-08-14T03:45:07;16.60;99.90
12588;DHT22;6359;51.450;7.346;2022-08-14T03:47:34;16.40;99.90
12588;DHT22;6359;51.450;7.346;2022-08-14T03:50:06;16.30;99.90
12588;DHT22;6359;51.450;7.346;2022-08-14T03:52:35;16.20;99.90
12588;DHT22;6359;51.450;7.346;2022-08-14T03:55:03;16.10;99.90
12588;DHT22;6359;51.450;7.346;2022-08-14T03:57:32;16.00;99.90
12588;DHT22;6359;51.450;7.346;2022-08-14T04:00:01;15.90;99.90
12588;DHT22;6359;51.450;7.346;2022-08-14T04:02:31;15.90;99.90
12588;DHT22;6359;51.450;7.346;2022-08-14T04:04:58;15.90;99.90
12588;DHT22;6359;51.450;7.346;2022-08-14T04:07:26;15.90;99.90
12588;DHT22;6359;51.450;7.346;2022-08-14T04:09:52;15.90;99.90
12588;DHT22;6359;51.450;7.346;2022-08-14T04:12:19;15.90;99.90
12588;DHT22;6359;51.450;7.346;2022-08-14T04:14:48;16.00;99.90
12588;DHT22;6359;51.450;7.346;2022-08-14T04:17:17;16.00;99.90
12588;DHT22;6359;51.450;7.346;2022-08-14T04:19:44;15.90;99.90
12588;DHT22;6359;51.450;7.346;2022-08-14T04:22:12;15.90;99.90
12588;DHT22;6359;51.450;7.346;2022-08-14T04:24:40;15.90;99.90
12588;DHT22;6359;51.450;7.346;2022-08-14T04:27:07;15.80;99.90
12588;DHT22;6359;51.450;7.346;2022-08-14T04:29:36;15.80;99.90
12588;DHT22;6359;51.450;7.346;2022-08-14T04:32:06;15.80;99.90
12588;DHT22;6359;51.450;7.346;2022-08-14T04:34:34;15.80;99.90
12588;DHT22;6359;51.450;7.346;2022-08-14T04:37:04;15.80;99.90
12588;DHT22;6359;51.450;7.346;2022-08-14T04:39:49;15.90;99.90
12588;DHT22;6359;51.450;7.346;2022-08-14T04:42:34;15.90;99.90
12588;DHT22;6359;51.450;7.346;2022-08-14T04:45:20;15.90;99.90
12588;DHT22;6359;51.450;7.346;2022-08-14T04:47:49;15.90;99.90
12588;DHT22;6359;51.450;7.346;2022-08-14T04:50:34;16.00;99.90
12588;DHT22;6359;51.450;7.346;2022-08-14T04:53:01;16.00;99.90
12588;DHT22;6359;51.450;7.346;2022-08-14T04:55:28;16.10;99.90
12588;DHT22;6359;51.450;7.346;2022-08-14T04:57:55;16.10;99.90
12588;DHT22;6359;51.450;7.346;2022-08-14T05:00:23;16.10;99.90
12588;DHT22;6359;51.450;7.346;2022-08-14T05:02:53;16.30;99.90
12588;DHT22;6359;51.450;7.346;2022-08-14T05:05:22;16.40;99.90
12588;DHT22;6359;51.450;7.346;2022-08-14T05:07:49;16.40;99.90
12588;DHT22;6359;51.450;7.346;2022-08-14T05:10:17;16.40;99.90
12588;DHT22;6359;51.450;7.346;2022-08-14T05:12:51;16.50;99.90
12588;DHT22;6359;51.450;7.346;2022-08-14T05:15:18;16.60;99.90
12588;DHT22;6359;51.450;7.346;2022-08-14T05:17:46;16.60;99.90
12588;DHT22;6359;51.450;7.346;2022-08-14T05:20:16;16.70;99.90
12588;DHT22;6359;51.450;7.346;2022-08-14T05:22:43;16.80;99.90
12588;DHT22;6359;51.450;7.346;2022-08-14T05:25:10;16.90;99.90
12588;DHT22;6359;51.450;7.346;2022-08-14T05:27:38;17.10;99.90
12588;DHT22;6359;51.450;7.346;2022-08-14T05:30:06;17.20;99.90
12588;DHT22;6359;51.450;7.346;2022-08-14T05:32:33;17.30;99.90
12588;DHT22;6359;51.450;7.346;2022-08-14T05:35:00;17.40;99.90
12588;DHT22;6359;51.450;7.346;2022-08-14T05:37:29;17.60;99.90
12588;DHT22;6359;51.450;7.346;2022-08-14T05:39:57;17.70;99.90
12588;DHT22;6359;51.450;7.346;2022-08-14T05:42:25;17.90;99.90
12588;DHT22;6359;51.450;7.346;2022-08-14T05:44:52;18.00;99.90
12588;DHT22;6359;51.450;7.346;2022-08-14T05:47:19;18.10;99.90
12588;DHT22;6359;51.450;7.346;2022-08-14T05:49:46;18.20;99.90
12588;DHT22;6359;51.450;7.346;2022-08-14T05:52:13;18.40;99.90
12588;DHT22;6359;51.450;7.346;2022-08-14T05:54:41;18.50;99.90
12588;DHT22;6359;51.450;7.346;2022-08-14T05:57:08;18.80;99.90
12588;DHT22;6359;51.450;7.346;2022-08-14T05:59:35;19.00;99.90
12588;DHT22;6359;51.450;7.346;2022-08-14T06:02:03;19.30;99.90
12588;DHT22;6359;51.450;7.346;2022-08-14T06:04:30;19.50;99.90
12588;DHT22;6359;51.450;7.346;2022-08-14T06:06:57;20.00;99.90
12588;DHT22;6359;51.450;7.346;2022-08-14T06:09:24;21.20;99.90
12588;DHT22;6359;51.450;7.346;2022-08-14T06:11:52;23.30;99.90
12588;DHT22;6359;51.450;7.346;2022-08-14T06:14:19;25.40;99.90
12588;DHT22;6359;51.450;7.346;2022-08-14T06:16:46;27.40;99.90
12588;DHT22;6359;51.450;7.346;2022-08-14T06:19:13;28.50;99.90
12588;DHT22;6359;51.450;7.346;2022-08-14T06:21:41;29.40;99.90
12588;DHT22;6359;51.450;7.346;2022-08-14T06:24:08;30.60;99.90
12588;DHT22;6359;51.450;7.346;2022-08-14T06:26:35;31.40;99.90
12588;DHT22;6359;51.450;7.346;2022-08-14T06:29:03;31.70;99.90
12588;DHT22;6359;51.450;7.346;2022-08-14T06:31:30;32.70;99.90
12588;DHT22;6359;51.450;7.346;2022-08-14T06:33:58;33.50;98.30
12588;DHT22;6359;51.450;7.346;2022-08-14T06:36:25;33.60;96.80
12588;DHT22;6359;51.450;7.346;2022-08-14T06:38:52;33.90;95.40
12588;DHT22;6359;51.450;7.346;2022-08-14T06:41:19;34.20;93.70
12588;DHT22;6359;51.450;7.346;2022-08-14T06:43:47;34.90;92.80
12588;DHT22;6359;51.450;7.346;2022-08-14T06:46:16;34.80;92.00
12588;DHT22;6359;51.450;7.346;2022-08-14T06:48:43;35.00;91.40
12588;DHT22;6359;51.450;7.346;2022-08-14T06:51:10;35.40;90.40
12588;DHT22;6359;51.450;7.346;2022-08-14T06:53:37;35.20;90.00
12588;DHT22;6359;51.450;7.346;2022-08-14T06:56:04;35.10;88.90
12588;DHT22;6359;51.450;7.346;2022-08-14T06:58:31;34.50;90.00
12588;DHT22;6359;51.450;7.346;2022-08-14T07:00:59;34.90;89.40
12588;DHT22;6359;51.450;7.346;2022-08-14T07:03:45;35.60;86.80
12588;DHT22;6359;51.450;7.346;2022-08-14T07:06:30;35.60;85.80
12588;DHT22;6359;51.450;7.346;2022-08-14T07:08:56;35.60;84.70
12588;DHT22;6359;51.450;7.346;2022-08-14T07:11:23;35.90;84.00
12588;DHT22;6359;51.450;7.346;2022-08-14T07:13:50;36.50;82.40
12588;DHT22;6359;51.450;7.346;2022-08-14T07:16:17;36.40;80.60
12588;DHT22;6359;51.450;7.346;2022-08-14T07:18:46;36.00;81.40
12588;DHT22;6359;51.450;7.346;2022-08-14T07:21:13;36.60;81.50
12588;DHT22;6359;51.450;7.346;2022-08-14T07:23:41;36.20;82.00
12588;DHT22;6359;51.450;7.346;2022-08-14T07:26:08;35.80;81.50
12588;DHT22;6359;51.450;7.346;2022-08-14T07:28:37;36.70;80.30
12588;DHT22;6359;51.450;7.346;2022-08-14T07:31:06;37.30;77.50
12588;DHT22;6359;51.450;7.346;2022-08-14T07:33:35;38.00;77.30
12588;DHT22;6359;51.450;7.346;2022-08-14T07:36:06;37.10;77.20
12588;DHT22;6359;51.450;7.346;2022-08-14T07:38:34;37.30;76.90
12588;DHT22;6359;51.450;7.346;2022-08-14T07:41:03;37.40;76.40
12588;DHT22;6359;51.450;7.346;2022-08-14T07:43:30;38.00;74.30
12588;DHT22;6359;51.450;7.346;2022-08-14T07:45:57;37.80;76.10
12588;DHT22;6359;51.450;7.346;2022-08-14T07:48:24;37.60;74.80
12588;DHT22;6359;51.450;7.346;2022-08-14T07:50:52;38.50;73.70
12588;DHT22;6359;51.450;7.346;2022-08-14T07:53:21;37.90;74.00
12588;DHT22;6359;51.450;7.346;2022-08-14T07:55:48;38.70;71.80
12588;DHT22;6359;51.450;7.346;2022-08-14T07:58:16;38.70;71.00
12588;DHT22;6359;51.450;7.346;2022-08-14T08:00:43;38.50;72.30
12588;DHT22;6359;51.450;7.346;2022-08-14T08:03:11;38.80;70.00
12588;DHT22;6359;51.450;7.346;2022-08-14T08:05:39;39.50;68.50
12588;DHT22;6359;51.450;7.346;2022-08-14T08:08:06;38.00;69.70
12588;DHT22;6359;51.450;7.346;2022-08-14T08:10:35;38.30;69.10
12588;DHT22;6359;51.450;7.346;2022-08-14T08:13:07;38.90;69.50
12588;DHT22;6359;51.450;7.346;2022-08-14T08:15:36;39.20;67.60
12588;DHT22;6359;51.450;7.346;2022-08-14T08:18:06;39.20;68.70
12588;DHT22;6359;51.450;7.346;2022-08-14T08:20:35;40.00;66.50
12588;DHT22;6359;51.450;7.346;2022-08-14T08:23:04;39.30;68.00
12588;DHT22;6359;51.450;7.346;2022-08-14T08:25:32;39.70;65.30
12588;DHT22;6359;51.450;7.346;2022-08-14T08:28:02;40.70;63.20
12588;DHT22;6359;51.450;7.346;2022-08-14T08:30:32;39.50;64.80
12588;DHT22;6359;51.450;7.346;2022-08-14T08:33:00;39.00;65.70
12588;DHT22;6359;51.450;7.346;2022-08-14T08:35:29;38.50;66.80
12588;DHT22;6359;51.450;7.346;2022-08-14T08:38:02;38.70;66.80
12588;DHT22;6359;51.450;7.346;2022-08-14T08:40:31;39.30;64.50
12588;DHT22;6359;51.450;7.346;2022-08-14T08:43:03;40.00;63.70
12588;DHT22;6359;51.450;7.346;2022-08-14T08:45:32;40.00;62.80
12588;DHT22;6359;51.450;7.346;2022-08-14T08:47:59;39.00;63.30
12588;DHT22;6359;51.450;7.346;2022-08-14T08:50:29;39.60;63.00
12588;DHT22;6359;51.450;7.346;2022-08-14T08:52:59;39.90;62.20
12588;DHT22;6359;51.450;7.346;2022-08-14T08:55:27;40.20;62.40
12588;DHT22;6359;51.450;7.346;2022-08-14T08:57:56;40.30;61.10
12588;DHT22;6359;51.450;7.346;2022-08-14T09:00:25;39.80;62.10
12588;DHT22;6359;51.450;7.346;2022-08-14T09:02:59;39.30;64.00
12588;DHT22;6359;51.450;7.346;2022-08-14T09:05:28;39.40;62.30
12588;DHT22;6359;51.450;7.346;2022-08-14T09:08:09;39.50;61.30
12588;DHT22;6359;51.450;7.346;2022-08-14T09:10:36;39.20;62.70
12588;DHT22;6359;51.450;7.346;2022-08-14T09:13:03;39.90;61.50
12588;DHT22;6359;51.450;7.346;2022-08-14T09:15:32;40.30;60.80
12588;DHT22;6359;51.450;7.346;2022-08-14T09:17:59;40.70;59.80
12588;DHT22;6359;51.450;7.346;2022-08-14T09:20:26;39.90;59.80
12588;DHT22;6359;51.450;7.346;2022-08-14T09:22:54;39.40;60.70
12588;DHT22;6359;51.450;7.346;2022-08-14T09:25:22;39.50;60.00
12588;DHT22;6359;51.450;7.346;2022-08-14T09:27:49;38.90;60.10
12588;DHT22;6359;51.450;7.346;2022-08-14T09:30:16;38.70;61.30
12588;DHT22;6359;51.450;7.346;2022-08-14T09:32:57;38.70;60.90
12588;DHT22;6359;51.450;7.346;2022-08-14T09:35:35;38.60;59.80
12588;DHT22;6359;51.450;7.346;2022-08-14T09:38:15;38.20;60.60
12588;DHT22;6359;51.450;7.346;2022-08-14T09:40:56;38.50;59.00
12588;DHT22;6359;51.450;7.346;2022-08-14T09:43:31;39.00;58.50
12588;DHT22;6359;51.450;7.346;2022-08-14T09:45:59;39.80;56.00
12588;DHT22;6359;51.450;7.346;2022-08-14T09:48:27;38.60;57.70
12588;DHT22;6359;51.450;7.346;2022-08-14T09:50:55;39.50;59.00
12588;DHT22;6359;51.450;7.346;2022-08-14T09:53:47;39.70;58.80
12588;DHT22;6359;51.450;7.346;2022-08-14T09:56:14;41.50;56.10
12588;DHT22;6359;51.450;7.346;2022-08-14T09:58:45;40.90;56.80
12588;DHT22;6359;51.450;7.346;2022-08-14T10:01:15;40.30;56.00
12588;DHT22;6359;51.450;7.346;2022-08-14T10:03:51;40.70;56.00
12588;DHT22;6359;51.450;7.346;2022-08-14T10:06:20;41.40;55.30
12588;DHT22;6359;51.450;7.346;2022-08-14T10:08:51;40.40;55.70
12588;DHT22;6359;51.450;7.346;2022-08-14T10:11:21;40.40;55.00
12588;DHT22;6359;51.450;7.346;2022-08-14T10:13:51;40.00;55.60
12588;DHT22;6359;51.450;7.346;2022-08-14T10:16:19;39.70;56.70
12588;DHT22;6359;51.450;7.346;2022-08-14T10:18:59;40.40;55.20
12588;DHT22;6359;51.450;7.346;2022-08-14T10:21:26;39.70;56.30
12588;DHT22;6359;51.450;7.346;2022-08-14T10:23:53;39.00;56.90
12588;DHT22;6359;51.450;7.346;2022-08-14T10:26:20;38.30;57.30
12588;DHT22;6359;51.450;7.346;2022-08-14T10:28:50;38.40;58.50
12588;DHT22;6359;51.450;7.346;2022-08-14T10:31:19;38.90;56.90
12588;DHT22;6359;51.450;7.346;2022-08-14T10:34:00;38.70;56.80
12588;DHT22;6359;51.450;7.346;2022-08-14T10:36:29;38.30;58.60
12588;DHT22;6359;51.450;7.346;2022-08-14T10:38:59;38.40;57.00
12588;DHT22;6359;51.450;7.346;2022-08-14T10:41:35;38.10;58.00
12588;DHT22;6359;51.450;7.346;2022-08-14T10:44:06;38.20;57.60
12588;DHT22;6359;51.450;7.346;2022-08-14T10:46:39;38.40;57.40
12588;DHT22;6359;51.450;7.346;2022-08-14T10:49:16;38.10;57.30
12588;DHT22;6359;51.450;7.346;2022-08-14T10:51:54;38.30;57.70
12588;DHT22;6359;51.450;7.346;2022-08-14T10:54:30;37.80;57.90
12588;DHT22;6359;51.450;7.346;2022-08-14T10:56:59;38.20;58.00
12588;DHT22;6359;51.450;7.346;2022-08-14T10:59:40;38.20;58.70
12588;DHT22;6359;51.450;7.346;2022-08-14T11:02:22;38.40;57.80
12588;DHT22;6359;51.450;7.346;2022-08-14T11:04:59;38.50;57.20
12588;DHT22;6359;51.450;7.346;2022-08-14T11:07:27;37.90;57.70
12588;DHT22;6359;51.450;7.346;2022-08-14T11:09:54;37.40;58.20
12588;DHT22;6359;51.450;7.346;2022-08-14T11:12:22;36.90;59.20
12588;DHT22;6359;51.450;7.346;2022-08-14T11:14:51;36.40;59.30
12588;DHT22;6359;51.450;7.346;2022-08-14T11:17:19;36.90;60.90
12588;DHT22;6359;51.450;7.346;2022-08-14T11:19:47;36.80;59.50
12588;DHT22;6359;51.450;7.346;2022-08-14T11:22:17;36.10;60.30
12588;DHT22;6359;51.450;7.346;2022-08-14T11:24:49;35.00;61.20
12588;DHT22;6359;51.450;7.346;2022-08-14T11:27:18;33.90;63.00
12588;DHT22;6359;51.450;7.346;2022-08-14T11:29:47;33.40;64.90
12588;DHT22;6359;51.450;7.346;2022-08-14T11:32:14;34.00;65.10
12588;DHT22;6359;51.450;7.346;2022-08-14T11:34:44;34.50;64.00
12588;DHT22;6359;51.450;7.346;2022-08-14T11:37:12;34.70;62.00
12588;DHT22;6359;51.450;7.346;2022-08-14T11:39:40;32.70;65.10
12588;DHT22;6359;51.450;7.346;2022-08-14T11:42:19;32.40;66.60
12588;DHT22;6359;51.450;7.346;2022-08-14T11:44:46;32.00;68.10
12588;DHT22;6359;51.450;7.346;2022-08-14T11:47:14;31.70;69.70
12588;DHT22;6359;51.450;7.346;2022-08-14T11:49:44;31.70;69.70
12588;DHT22;6359;51.450;7.346;2022-08-14T11:52:12;31.60;70.30
12588;DHT22;6359;51.450;7.346;2022-08-14T11:54:40;31.50;71.20
12588;DHT22;6359;51.450;7.346;2022-08-14T11:57:17;32.10;70.80
12588;DHT22;6359;51.450;7.346;2022-08-14T11:59:44;32.40;72.00
12588;DHT22;6359;51.450;7.346;2022-08-14T12:02:13;32.40;69.40
12588;DHT22;6359;51.450;7.346;2022-08-14T12:04:49;32.70;69.00
12588;DHT22;6359;51.450;7.346;2022-08-14T12:07:17;32.90;69.60
12588;DHT22;6359;51.450;7.346;2022-08-14T12:09:51;32.60;68.20
12588;DHT22;6359;51.450;7.346;2022-08-14T12:12:20;32.20;68.70
12588;DHT22;6359;51.450;7.346;2022-08-14T12:14:48;31.30;70.50
12588;DHT22;6359;51.450;7.346;2022-08-14T12:17:27;31.50;71.10
12588;DHT22;6359;51.450;7.346;2022-08-14T12:20:08;31.80;70.20
12588;DHT22;6359;51.450;7.346;2022-08-14T12:22:42;32.20;70.00
12588;DHT22;6359;51.450;7.346;2022-08-14T12:25:28;32.30;69.30
12588;DHT22;6359;51.450;7.346;2022-08-14T12:28:09;32.00;68.10
12588;DHT22;6359;51.450;7.346;2022-08-14T12:30:56;31.90;68.60
12588;DHT22;6359;51.450;7.346;2022-08-14T12:33:25;31.80;68.90
12588;DHT22;6359;51.450;7.346;2022-08-14T12:35:56;31.90;71.40
12588;DHT22;6359;51.450;7.346;2022-08-14T12:38:32;31.80;70.30
12588;DHT22;6359;51.450;7.346;2022-08-14T12:41:01;31.80;70.30
12588;DHT22;6359;51.450;7.346;2022-08-14T12:43:30;31.80;71.60
12588;DHT22;6359;51.450;7.346;2022-08-14T12:45:58;31.90;71.80
12588;DHT22;6359;51.450;7.346;2022-08-14T12:48:25;32.20;71.40
12588;DHT22;6359;51.450;7.346;2022-08-14T12:50:53;32.40;70.00
12588;DHT22;6359;51.450;7.346;2022-08-14T12:53:33;32.50;70.80
12588;DHT22;6359;51.450;7.346;2022-08-14T12:56:02;32.90;71.70
12588;DHT22;6359;51.450;7.346;2022-08-14T12:58:31;33.40;69.80
12588;DHT22;6359;51.450;7.346;2022-08-14T13:01:00;33.70;69.10
12588;DHT22;6359;51.450;7.346;2022-08-14T13:03:28;33.90;67.30
12588;DHT22;6359;51.450;7.346;2022-08-14T13:05:55;33.90;64.50
12588;DHT22;6359;51.450;7.346;2022-08-14T13:08:22;33.70;65.80
12588;DHT22;6359;51.450;7.346;2022-08-14T13:10:51;33.00;64.30
12588;DHT22;6359;51.450;7.346;2022-08-14T13:13:19;33.00;65.70
12588;DHT22;6359;51.450;7.346;2022-08-14T13:15:48;33.00;66.10
12588;DHT22;6359;51.450;7.346;2022-08-14T13:18:18;33.40;65.10
12588;DHT22;6359;51.450;7.346;2022-08-14T13:20:48;33.80;64.40
12588;DHT22;6359;51.450;7.346;2022-08-14T13:23:17;33.80;65.30
12588;DHT22;6359;51.450;7.346;2022-08-14T13:25:49;33.70;64.80
12588;DHT22;6359;51.450;7.346;2022-08-14T13:28:20;33.80;64.80
12588;DHT22;6359;51.450;7.346;2022-08-14T13:30:48;34.00;65.70
12588;DHT22;6359;51.450;7.346;2022-08-14T13:33:16;34.10;66.50
12588;DHT22;6359;51.450;7.346;2022-08-14T13:35:47;33.80;63.70
12588;DHT22;6359;51.450;7.346;2022-08-14T13:38:17;33.60;63.40
12588;DHT22;6359;51.450;7.346;2022-08-14T13:40:45;32.70;65.60
12588;DHT22;6359;51.450;7.346;2022-08-14T13:43:13;32.60;66.10
12588;DHT22;6359;51.450;7.346;2022-08-14T13:45:41;32.80;66.20
12588;DHT22;6359;51.450;7.346;2022-08-14T13:48:12;32.70;66.70
12588;DHT22;6359;51.450;7.346;2022-08-14T13:50:40;33.20;65.80
12588;DHT22;6359;51.450;7.346;2022-08-14T13:53:12;32.90;67.00
12588;DHT22;6359;51.450;7.346;2022-08-14T13:55:41;33.40;66.20
12588;DHT22;6359;51.450;7.346;2022-08-14T13:58:11;33.80;65.60
12588;DHT22;6359;51.450;7.346;2022-08-14T14:00:43;34.10;64.80
12588;DHT22;6359;51.450;7.346;2022-08-14T14:03:13;33.80;65.90
12588;DHT22;6359;51.450;7.346;2022-08-14T14:05:41;33.50;65.30
12588;DHT22;6359;51.450;7.346;2022-08-14T14:08:09;32.70;66.30
12588;DHT22;6359;51.450;7.346;2022-08-14T14:10:38;33.30;66.30
12588;DHT22;6359;51.450;7.346;2022-08-14T14:13:05;33.50;67.30
12588;DHT22;6359;51.450;7.346;2022-08-14T14:15:32;33.90;65.70
12588;DHT22;6359;51.450;7.346;2022-08-14T14:18:03;33.90;65.20
12588;DHT22;6359;51.450;7.346;2022-08-14T14:20:31;34.00;65.30
12588;DHT22;6359;51.450;7.346;2022-08-14T14:22:58;33.80;64.80
12588;DHT22;6359;51.450;7.346;2022-08-14T14:25:26;33.80;65.60
12588;DHT22;6359;51.450;7.346;2022-08-14T14:27:55;33.20;65.60
12588;DHT22;6359;51.450;7.346;2022-08-14T14:30:25;33.10;66.00
12588;DHT22;6359;51.450;7.346;2022-08-14T14:32:54;32.20;68.00
12588;DHT22;6359;51.450;7.346;2022-08-14T14:35:23;32.30;68.60
12588;DHT22;6359;51.450;7.346;2022-08-14T14:37:54;32.20;67.60
12588;DHT22;6359;51.450;7.346;2022-08-14T14:40:21;32.10;67.50
12588;DHT22;6359;51.450;7.346;2022-08-14T14:42:50;32.00;68.70
12588;DHT22;6359;51.450;7.346;2022-08-14T14:45:19;32.00;69.60
12588;DHT22;6359;51.450;7.346;2022-08-14T14:47:48;31.90;68.50
12588;DHT22;6359;51.450;7.346;2022-08-14T14:50:17;32.00;70.10
12588;DHT22;6359;51.450;7.346;2022-08-14T14:52:46;31.90;68.10
12588;DHT22;6359;51.450;7.346;2022-08-14T14:55:14;31.70;68.50
12588;DHT22;6359;51.450;7.346;2022-08-14T14:57:42;31.80;68.40
12588;DHT22;6359;51.450;7.346;2022-08-14T15:00:11;31.80;70.40
12588;DHT22;6359;51.450;7.346;2022-08-14T15:02:41;31.80;71.80
12588;DHT22;6359;51.450;7.346;2022-08-14T15:05:09;31.70;71.20
12588;DHT22;6359;51.450;7.346;2022-08-14T15:07:37;31.70;70.40
12588;DHT22;6359;51.450;7.346;2022-08-14T15:10:08;31.90;70.40
12588;DHT22;6359;51.450;7.346;2022-08-14T15:12:35;32.20;71.30
12588;DHT22;6359;51.450;7.346;2022-08-14T15:15:03;32.70;70.80
12588;DHT22;6359;51.450;7.346;2022-08-14T15:17:30;33.00;68.10
12588;DHT22;6359;51.450;7.346;2022-08-14T15:20:01;33.10;68.40
12588;DHT22;6359;51.450;7.346;2022-08-14T15:22:30;33.30;67.30
12588;DHT22;6359;51.450;7.346;2022-08-14T15:24:57;33.30;68.30
12588;DHT22;6359;51.450;7.346;2022-08-14T15:27:25;33.40;68.60
12588;DHT22;6359;51.450;7.346;2022-08-14T15:29:53;33.20;66.70
12588;DHT22;6359;51.450;7.346;2022-08-14T15:32:20;33.10;67.20
12588;DHT22;6359;51.450;7.346;2022-08-14T15:34:48;32.80;67.90
12588;DHT22;6359;51.450;7.346;2022-08-14T15:37:15;32.60;68.20
12588;DHT22;6359;51.450;7.346;2022-08-14T15:39:42;32.80;68.80
12588;DHT22;6359;51.450;7.346;2022-08-14T15:42:09;32.60;67.90
12588;DHT22;6359;51.450;7.346;2022-08-14T15:44:37;32.40;67.60
12588;DHT22;6359;51.450;7.346;2022-08-14T15:47:04;32.20;68.50
12588;DHT22;6359;51.450;7.346;2022-08-14T15:49:34;32.10;67.80
12588;DHT22;6359;51.450;7.346;2022-08-14T15:52:03;32.00;67.80
12588;DHT22;6359;51.450;7.346;2022-08-14T15:54:31;31.90;69.20
12588;DHT22;6359;51.450;7.346;2022-08-14T15:57:03;31.90;68.40
12588;DHT22;6359;51.450;7.346;2022-08-14T15:59:31;32.00;67.70